sensor_id;sensor_type;location;lat;lon;timestamp;P1;durP1;ratioP1;P2;durP2;ratioP2
19828;SDS011;10075;50.924;4.396;2022-12-10T00:00:11;67.20;;;28.43;;
19828;SDS011;10075;50.924;4.396;2022-12-10T00:02:39;67.17;;;30.90;;
19828;SDS011;10075;50.924;4.396;2022-12-10T00:05:06;56.97;;;26.83;;
19828;SDS011;10075;50.924;4.396;2022-12-10T00:07:34;60.20;;;28.57;;
19828;SDS011;10075;50.924;4.396;2022-12-10T00:10:01;70.53;;;30.70;;
19828;SDS011;10075;50.924;4.396;2022-12-10T00:12:28;58.60;;;26.33;;
19828;SDS011;10075;50.924;4.396;2022-12-10T00:14:55;65.40;;;28.40;;
19828;SDS011;10075;50.924;4.396;2022-12-10T00:17:23;62.73;;;27.43;;
19828;SDS011;10075;50.924;4.396;2022-12-10T00:19:50;65.87;;;28.43;;
19828;SDS011;10075;50.924;4.396;2022-12-10T00:22:17;61.93;;;28.50;;
19828;SDS011;10075;50.924;4.396;2022-12-10T00:24:44;64.47;;;28.90;;
19828;SDS011;10075;50.924;4.396;2022-12-10T00:27:12;67.93;;;30.43;;
19828;SDS011;10075;50.924;4.396;2022-12-10T00:29:39;67.90;;;30.20;;
19828;SDS011;10075;50.924;4.396;2022-12-10T00:32:06;72.73;;;31.10;;
19828;SDS011;10075;50.924;4.396;2022-12-10T00:34:34;71.10;;;29.83;;
19828;SDS011;10075;50.924;4.396;2022-12-10T00:37:01;69.90;;;31.53;;
19828;SDS011;10075;50.924;4.396;2022-12-10T00:39:28;76.77;;;32.53;;
19828;SDS011;10075;50.924;4.396;2022-12-10T00:41:55;70.47;;;31.20;;
19828;SDS011;10075;50.924;4.396;2022-12-10T00:44:22;81.17;;;32.53;;
19828;SDS011;10075;50.924;4.396;2022-12-10T00:46:49;73.73;;;31.27;;
19828;SDS011;10075;50.924;4.396;2022-12-10T00:49:16;74.47;;;33.03;;
19828;SDS011;10075;50.924;4.396;2022-12-10T00:51:45;76.53;;;30.50;;
19828;SDS011;10075;50.924;4.396;2022-12-10T00:54:12;72.70;;;31.73;;
19828;SDS011;10075;50.924;4.396;2022-12-10T00:56:39;77.27;;;31.87;;
19828;SDS011;10075;50.924;4.396;2022-12-10T00:59:06;79.33;;;33.03;;
19828;SDS011;10075;50.924;4.396;2022-12-10T01:01:34;69.90;;;30.57;;
19828;SDS011;10075;50.924;4.396;2022-12-10T01:04:03;70.13;;;31.57;;
19828;SDS011;10075;50.924;4.396;2022-12-10T01:06:32;68.43;;;29.60;;
19828;SDS011;10075;50.924;4.396;2022-12-10T01:09:03;76.90;;;31.90;;
19828;SDS011;10075;50.924;4.396;2022-12-10T01:11:32;66.57;;;30.30;;
19828;SDS011;10075;50.924;4.396;2022-12-10T01:14:02;73.90;;;32.10;;
19828;SDS011;10075;50.924;4.396;2022-12-10T01:16:29;73.87;;;31.47;;
19828;SDS011;10075;50.924;4.396;2022-12-10T01:18:57;71.07;;;31.33;;
19828;SDS011;10075;50.924;4.396;2022-12-10T01:21:25;67.77;;;28.80;;
19828;SDS011;10075;50.924;4.396;2022-12-10T01:23:53;69.20;;;30.37;;
19828;SDS011;10075;50.924;4.396;2022-12-10T01:26:22;73.93;;;31.63;;
19828;SDS011;10075;50.924;4.396;2022-12-10T01:28:51;74.10;;;31.00;;
19828;SDS011;10075;50.924;4.396;2022-12-10T01:31:19;70.47;;;29.73;;
19828;SDS011;10075;50.924;4.396;2022-12-10T01:33:47;78.87;;;33.37;;
19828;SDS011;10075;50.924;4.396;2022-12-10T01:36:17;75.83;;;32.13;;
19828;SDS011;10075;50.924;4.396;2022-12-10T01:38:45;78.53;;;32.37;;
19828;SDS011;10075;50.924;4.396;2022-12-10T01:41:14;74.57;;;32.77;;
19828;SDS011;10075;50.924;4.396;2022-12-10T01:43:57;71.50;;;32.57;;
19828;SDS011;10075;50.924;4.396;2022-12-10T01:46:27;71.93;;;32.30;;
19828;SDS011;10075;50.924;4.396;2022-12-10T01:48:56;62.33;;;28.90;;
19828;SDS011;10075;50.924;4.396;2022-12-10T01:51:25;69.97;;;30.57;;
19828;SDS011;10075;50.924;4.396;2022-12-10T01:53:53;68.93;;;30.57;;
19828;SDS011;10075;50.924;4.396;2022-12-10T01:56:21;74.37;;;33.60;;
19828;SDS011;10075;50.924;4.396;2022-12-10T01:58:49;68.57;;;31.20;;
19828;SDS011;10075;50.924;4.396;2022-12-10T02:01:23;82.87;;;33.53;;
19828;SDS011;10075;50.924;4.396;2022-12-10T02:03:58;71.53;;;31.80;;
19828;SDS011;10075;50.924;4.396;2022-12-10T02:06:40;77.33;;;32.43;;
19828;SDS011;10075;50.924;4.396;2022-12-10T02:09:13;73.63;;;31.90;;
19828;SDS011;10075;50.924;4.396;2022-12-10T02:11:50;72.47;;;33.23;;
19828;SDS011;10075;50.924;4.396;2022-12-10T02:14:24;80.27;;;35.33;;
19828;SDS011;10075;50.924;4.396;2022-12-10T02:16:58;81.77;;;35.73;;
19828;SDS011;10075;50.924;4.396;2022-12-10T02:19:33;96.63;;;39.13;;
19828;SDS011;10075;50.924;4.396;2022-12-10T02:22:17;97.73;;;40.83;;
19828;SDS011;10075;50.924;4.396;2022-12-10T02:24:47;101.30;;;42.20;;
19828;SDS011;10075;50.924;4.396;2022-12-10T02:27:15;101.43;;;42.87;;
19828;SDS011;10075;50.924;4.396;2022-12-10T02:29:47;103.47;;;42.50;;
19828;SDS011;10075;50.924;4.396;2022-12-10T02:32:17;106.00;;;43.87;;
19828;SDS011;10075;50.924;4.396;2022-12-10T02:34:49;124.10;;;49.70;;
19828;SDS011;10075;50.924;4.396;2022-12-10T02:37:21;104.00;;;44.53;;
19828;SDS011;10075;50.924;4.396;2022-12-10T02:39:53;88.00;;;38.50;;
19828;SDS011;10075;50.924;4.396;2022-12-10T02:42:23;95.37;;;39.07;;
19828;SDS011;10075;50.924;4.396;2022-12-10T02:44:53;82.20;;;34.23;;
19828;SDS011;10075;50.924;4.396;2022-12-10T02:47:23;73.57;;;33.90;;
19828;SDS011;10075;50.924;4.396;2022-12-10T02:49:53;69.83;;;34.53;;
19828;SDS011;10075;50.924;4.396;2022-12-10T02:52:22;71.77;;;34.33;;
19828;SDS011;10075;50.924;4.396;2022-12-10T02:54:50;74.37;;;34.23;;
19828;SDS011;10075;50.924;4.396;2022-12-10T02:57:20;67.40;;;31.90;;
19828;SDS011;10075;50.924;4.396;2022-12-10T03:00:03;71.93;;;33.07;;
19828;SDS011;10075;50.924;4.396;2022-12-10T03:02:37;89.07;;;32.63;;
19828;SDS011;10075;50.924;4.396;2022-12-10T03:05:13;75.20;;;34.37;;
19828;SDS011;10075;50.924;4.396;2022-12-10T03:07:46;68.97;;;31.23;;
19828;SDS011;10075;50.924;4.396;2022-12-10T03:10:18;75.03;;;32.13;;
19828;SDS011;10075;50.924;4.396;2022-12-10T03:12:53;69.67;;;31.23;;
19828;SDS011;10075;50.924;4.396;2022-12-10T03:15:27;79.40;;;34.07;;
19828;SDS011;10075;50.924;4.396;2022-12-10T03:17:56;75.10;;;34.70;;
19828;SDS011;10075;50.924;4.396;2022-12-10T03:20:28;71.83;;;32.60;;
19828;SDS011;10075;50.924;4.396;2022-12-10T03:22:57;76.67;;;33.97;;
19828;SDS011;10075;50.924;4.396;2022-12-10T03:25:26;77.80;;;34.77;;
19828;SDS011;10075;50.924;4.396;2022-12-10T03:27:56;76.13;;;33.43;;
19828;SDS011;10075;50.924;4.396;2022-12-10T03:30:26;90.57;;;35.17;;
19828;SDS011;10075;50.924;4.396;2022-12-10T03:32:55;83.77;;;34.60;;
19828;SDS011;10075;50.924;4.396;2022-12-10T03:35:22;90.93;;;36.57;;
19828;SDS011;10075;50.924;4.396;2022-12-10T03:37:51;97.90;;;39.03;;
19828;SDS011;10075;50.924;4.396;2022-12-10T03:40:19;97.93;;;39.77;;
19828;SDS011;10075;50.924;4.396;2022-12-10T03:42:48;100.73;;;39.23;;
19828;SDS011;10075;50.924;4.396;2022-12-10T03:45:15;97.63;;;38.03;;
19828;SDS011;10075;50.924;4.396;2022-12-10T03:47:44;109.57;;;42.23;;
19828;SDS011;10075;50.924;4.396;2022-12-10T03:50:11;99.10;;;38.97;;
19828;SDS011;10075;50.924;4.396;2022-12-10T03:52:38;97.10;;;39.20;;
19828;SDS011;10075;50.924;4.396;2022-12-10T03:55:05;99.17;;;38.47;;
19828;SDS011;10075;50.924;4.396;2022-12-10T03:57:33;91.70;;;37.30;;
19828;SDS011;10075;50.924;4.396;2022-12-10T04:00:00;103.17;;;38.07;;
19828;SDS011;10075;50.924;4.396;2022-12-10T04:02:27;114.93;;;40.37;;
19828;SDS011;10075;50.924;4.396;2022-12-10T04:04:55;93.73;;;38.80;;
19828;SDS011;10075;50.924;4.396;2022-12-10T04:07:22;117.57;;;41.03;;
19828;SDS011;10075;50.924;4.396;2022-12-10T04:09:49;117.97;;;41.30;;
19828;SDS011;10075;50.924;4.396;2022-12-10T04:12:17;98.97;;;36.67;;
19828;SDS011;10075;50.924;4.396;2022-12-10T04:14:44;109.80;;;41.17;;
19828;SDS011;10075;50.924;4.396;2022-12-10T04:17:28;99.90;;;37.40;;
19828;SDS011;10075;50.924;4.396;2022-12-10T04:19:58;111.43;;;41.73;;
19828;SDS011;10075;50.924;4.396;2022-12-10T04:22:25;113.07;;;39.93;;
19828;SDS011;10075;50.924;4.396;2022-12-10T04:25:10;108.40;;;40.93;;
19828;SDS011;10075;50.924;4.396;2022-12-10T04:27:56;99.17;;;37.17;;
19828;SDS011;10075;50.924;4.396;2022-12-10T04:30:23;100.00;;;38.70;;
19828;SDS011;10075;50.924;4.396;2022-12-10T04:32:50;105.57;;;41.07;;
19828;SDS011;10075;50.924;4.396;2022-12-10T04:35:19;114.90;;;41.40;;
19828;SDS011;10075;50.924;4.396;2022-12-10T04:37:46;120.33;;;40.60;;
19828;SDS011;10075;50.924;4.396;2022-12-10T04:40:13;133.67;;;44.00;;
19828;SDS011;10075;50.924;4.396;2022-12-10T04:42:40;120.33;;;42.33;;
19828;SDS011;10075;50.924;4.396;2022-12-10T04:45:07;121.20;;;44.03;;
19828;SDS011;10075;50.924;4.396;2022-12-10T04:47:34;127.03;;;45.63;;
19828;SDS011;10075;50.924;4.396;2022-12-10T04:50:02;110.43;;;41.17;;
19828;SDS011;10075;50.924;4.396;2022-12-10T04:52:31;105.40;;;39.63;;
19828;SDS011;10075;50.924;4.396;2022-12-10T04:54:58;120.10;;;41.80;;
19828;SDS011;10075;50.924;4.396;2022-12-10T04:57:25;122.73;;;42.80;;
19828;SDS011;10075;50.924;4.396;2022-12-10T04:59:52;130.77;;;43.70;;
19828;SDS011;10075;50.924;4.396;2022-12-10T05:02:19;120.60;;;43.23;;
19828;SDS011;10075;50.924;4.396;2022-12-10T05:04:47;111.33;;;40.47;;
19828;SDS011;10075;50.924;4.396;2022-12-10T05:07:15;107.47;;;38.33;;
19828;SDS011;10075;50.924;4.396;2022-12-10T05:09:43;99.37;;;36.53;;
19828;SDS011;10075;50.924;4.396;2022-12-10T05:12:10;100.93;;;37.73;;
19828;SDS011;10075;50.924;4.396;2022-12-10T05:14:37;92.70;;;34.23;;
19828;SDS011;10075;50.924;4.396;2022-12-10T05:17:04;89.00;;;34.13;;
19828;SDS011;10075;50.924;4.396;2022-12-10T05:19:31;105.10;;;38.57;;
19828;SDS011;10075;50.924;4.396;2022-12-10T05:21:58;106.13;;;35.93;;
19828;SDS011;10075;50.924;4.396;2022-12-10T05:24:44;97.40;;;37.87;;
19828;SDS011;10075;50.924;4.396;2022-12-10T05:27:11;112.00;;;39.03;;
19828;SDS011;10075;50.924;4.396;2022-12-10T05:29:38;105.27;;;35.90;;
19828;SDS011;10075;50.924;4.396;2022-12-10T05:32:05;111.37;;;38.00;;
19828;SDS011;10075;50.924;4.396;2022-12-10T05:34:32;123.80;;;39.03;;
19828;SDS011;10075;50.924;4.396;2022-12-10T05:36:59;113.63;;;38.67;;
19828;SDS011;10075;50.924;4.396;2022-12-10T05:39:26;116.27;;;35.20;;
19828;SDS011;10075;50.924;4.396;2022-12-10T05:41:54;126.23;;;37.77;;
19828;SDS011;10075;50.924;4.396;2022-12-10T05:44:22;144.83;;;36.27;;
19828;SDS011;10075;50.924;4.396;2022-12-10T05:46:49;155.07;;;41.67;;
19828;SDS011;10075;50.924;4.396;2022-12-10T05:49:18;130.40;;;39.27;;
19828;SDS011;10075;50.924;4.396;2022-12-10T05:51:45;155.60;;;41.43;;
19828;SDS011;10075;50.924;4.396;2022-12-10T05:54:12;146.30;;;43.03;;
19828;SDS011;10075;50.924;4.396;2022-12-10T05:56:39;253.80;;;49.50;;
19828;SDS011;10075;50.924;4.396;2022-12-10T05:59:07;136.27;;;41.80;;
19828;SDS011;10075;50.924;4.396;2022-12-10T06:01:35;205.47;;;39.43;;
19828;SDS011;10075;50.924;4.396;2022-12-10T06:04:03;176.97;;;40.40;;
19828;SDS011;10075;50.924;4.396;2022-12-10T06:06:32;146.43;;;44.23;;
19828;SDS011;10075;50.924;4.396;2022-12-10T06:09:00;220.67;;;43.13;;
19828;SDS011;10075;50.924;4.396;2022-12-10T06:11:28;205.10;;;45.83;;
19828;SDS011;10075;50.924;4.396;2022-12-10T06:13:55;179.20;;;45.47;;
19828;SDS011;10075;50.924;4.396;2022-12-10T06:16:25;218.77;;;45.63;;
19828;SDS011;10075;50.924;4.396;2022-12-10T06:18:53;141.57;;;42.30;;
19828;SDS011;10075;50.924;4.396;2022-12-10T06:21:21;235.80;;;44.60;;
19828;SDS011;10075;50.924;4.396;2022-12-10T06:23:48;157.17;;;39.60;;
19828;SDS011;10075;50.924;4.396;2022-12-10T06:26:17;150.77;;;40.00;;
19828;SDS011;10075;50.924;4.396;2022-12-10T06:28:45;166.40;;;39.53;;
19828;SDS011;10075;50.924;4.396;2022-12-10T06:31:13;393.70;;;55.40;;
19828;SDS011;10075;50.924;4.396;2022-12-10T06:33:42;187.77;;;45.53;;
19828;SDS011;10075;50.924;4.396;2022-12-10T06:36:11;218.63;;;47.90;;
19828;SDS011;10075;50.924;4.396;2022-12-10T06:38:39;189.50;;;44.33;;
19828;SDS011;10075;50.924;4.396;2022-12-10T06:41:08;197.40;;;45.27;;
19828;SDS011;10075;50.924;4.396;2022-12-10T06:43:36;295.90;;;50.57;;
19828;SDS011;10075;50.924;4.396;2022-12-10T06:46:04;255.27;;;47.93;;
19828;SDS011;10075;50.924;4.396;2022-12-10T06:48:32;162.37;;;39.60;;
19828;SDS011;10075;50.924;4.396;2022-12-10T06:51:01;186.80;;;43.90;;
19828;SDS011;10075;50.924;4.396;2022-12-10T06:53:30;183.37;;;44.60;;
19828;SDS011;10075;50.924;4.396;2022-12-10T06:55:58;220.13;;;42.17;;
19828;SDS011;10075;50.924;4.396;2022-12-10T06:58:26;209.27;;;39.57;;
19828;SDS011;10075;50.924;4.396;2022-12-10T07:00:54;149.27;;;40.13;;
19828;SDS011;10075;50.924;4.396;2022-12-10T07:03:28;177.17;;;43.00;;
19828;SDS011;10075;50.924;4.396;2022-12-10T07:05:56;208.47;;;44.50;;
19828;SDS011;10075;50.924;4.396;2022-12-10T07:08:25;298.87;;;46.40;;
19828;SDS011;10075;50.924;4.396;2022-12-10T07:10:53;151.87;;;36.23;;
19828;SDS011;10075;50.924;4.396;2022-12-10T07:13:20;161.40;;;40.77;;
19828;SDS011;10075;50.924;4.396;2022-12-10T07:15:47;164.67;;;35.80;;
19828;SDS011;10075;50.924;4.396;2022-12-10T07:18:14;231.60;;;37.57;;
19828;SDS011;10075;50.924;4.396;2022-12-10T07:20:41;170.00;;;34.37;;
19828;SDS011;10075;50.924;4.396;2022-12-10T07:23:08;185.50;;;35.97;;
19828;SDS011;10075;50.924;4.396;2022-12-10T07:25:36;143.30;;;31.43;;
19828;SDS011;10075;50.924;4.396;2022-12-10T07:28:03;234.93;;;37.13;;
19828;SDS011;10075;50.924;4.396;2022-12-10T07:30:30;165.37;;;37.30;;
19828;SDS011;10075;50.924;4.396;2022-12-10T07:32:58;177.03;;;35.03;;
19828;SDS011;10075;50.924;4.396;2022-12-10T07:35:25;170.00;;;39.60;;
19828;SDS011;10075;50.924;4.396;2022-12-10T07:37:52;122.00;;;33.73;;
19828;SDS011;10075;50.924;4.396;2022-12-10T07:40:19;98.53;;;30.27;;
19828;SDS011;10075;50.924;4.396;2022-12-10T07:42:48;134.53;;;34.87;;
19828;SDS011;10075;50.924;4.396;2022-12-10T07:45:15;140.37;;;32.53;;
19828;SDS011;10075;50.924;4.396;2022-12-10T07:47:42;125.00;;;30.37;;
19828;SDS011;10075;50.924;4.396;2022-12-10T07:50:09;149.90;;;34.27;;
19828;SDS011;10075;50.924;4.396;2022-12-10T07:52:36;106.43;;;29.30;;
19828;SDS011;10075;50.924;4.396;2022-12-10T07:55:03;146.17;;;35.43;;
19828;SDS011;10075;50.924;4.396;2022-12-10T07:57:31;123.53;;;35.60;;
19828;SDS011;10075;50.924;4.396;2022-12-10T07:59:59;111.27;;;34.83;;
19828;SDS011;10075;50.924;4.396;2022-12-10T08:02:26;116.17;;;33.87;;
19828;SDS011;10075;50.924;4.396;2022-12-10T08:04:53;99.67;;;33.47;;
19828;SDS011;10075;50.924;4.396;2022-12-10T08:07:20;86.17;;;31.17;;
19828;SDS011;10075;50.924;4.396;2022-12-10T08:09:47;210.20;;;42.40;;
19828;SDS011;10075;50.924;4.396;2022-12-10T08:12:14;141.40;;;37.83;;
19828;SDS011;10075;50.924;4.396;2022-12-10T08:14:42;207.70;;;41.97;;
19828;SDS011;10075;50.924;4.396;2022-12-10T08:17:10;114.10;;;33.50;;
19828;SDS011;10075;50.924;4.396;2022-12-10T08:19:37;110.83;;;31.93;;
19828;SDS011;10075;50.924;4.396;2022-12-10T08:22:04;95.17;;;31.30;;
19828;SDS011;10075;50.924;4.396;2022-12-10T08:24:31;111.67;;;31.50;;
19828;SDS011;10075;50.924;4.396;2022-12-10T08:26:58;110.07;;;36.23;;
19828;SDS011;10075;50.924;4.396;2022-12-10T08:29:25;114.87;;;34.60;;
19828;SDS011;10075;50.924;4.396;2022-12-10T08:31:52;115.73;;;33.67;;
19828;SDS011;10075;50.924;4.396;2022-12-10T08:34:21;92.73;;;29.77;;
19828;SDS011;10075;50.924;4.396;2022-12-10T08:36:48;119.10;;;32.83;;
19828;SDS011;10075;50.924;4.396;2022-12-10T08:39:15;105.37;;;34.30;;
19828;SDS011;10075;50.924;4.396;2022-12-10T08:41:42;97.37;;;32.43;;
19828;SDS011;10075;50.924;4.396;2022-12-10T08:44:10;122.33;;;33.27;;
19828;SDS011;10075;50.924;4.396;2022-12-10T08:46:37;123.47;;;33.53;;
19828;SDS011;10075;50.924;4.396;2022-12-10T08:49:05;106.40;;;33.17;;
19828;SDS011;10075;50.924;4.396;2022-12-10T08:51:34;163.60;;;40.30;;
19828;SDS011;10075;50.924;4.396;2022-12-10T08:54:02;172.03;;;42.57;;
19828;SDS011;10075;50.924;4.396;2022-12-10T08:56:29;160.60;;;39.37;;
19828;SDS011;10075;50.924;4.396;2022-12-10T08:58:57;142.97;;;39.37;;
19828;SDS011;10075;50.924;4.396;2022-12-10T09:01:24;160.93;;;40.63;;
19828;SDS011;10075;50.924;4.396;2022-12-10T09:03:51;117.70;;;36.50;;
19828;SDS011;10075;50.924;4.396;2022-12-10T09:06:20;128.30;;;36.17;;
19828;SDS011;10075;50.924;4.396;2022-12-10T09:08:51;117.77;;;34.17;;
19828;SDS011;10075;50.924;4.396;2022-12-10T09:11:20;103.80;;;33.63;;
19828;SDS011;10075;50.924;4.396;2022-12-10T09:13:49;101.00;;;31.63;;
19828;SDS011;10075;50.924;4.396;2022-12-10T09:16:16;111.10;;;32.60;;
19828;SDS011;10075;50.924;4.396;2022-12-10T09:18:43;110.97;;;31.43;;
19828;SDS011;10075;50.924;4.396;2022-12-10T09:21:11;108.47;;;30.90;;
19828;SDS011;10075;50.924;4.396;2022-12-10T09:23:40;161.73;;;36.87;;
19828;SDS011;10075;50.924;4.396;2022-12-10T09:26:09;119.93;;;34.27;;
19828;SDS011;10075;50.924;4.396;2022-12-10T09:28:38;138.03;;;37.47;;
19828;SDS011;10075;50.924;4.396;2022-12-10T09:31:06;160.70;;;38.67;;
19828;SDS011;10075;50.924;4.396;2022-12-10T09:33:34;145.50;;;34.13;;
19828;SDS011;10075;50.924;4.396;2022-12-10T09:36:02;157.47;;;38.17;;
19828;SDS011;10075;50.924;4.396;2022-12-10T09:38:33;111.10;;;32.83;;
19828;SDS011;10075;50.924;4.396;2022-12-10T09:41:00;104.80;;;30.97;;
19828;SDS011;10075;50.924;4.396;2022-12-10T09:43:36;122.80;;;33.63;;
19828;SDS011;10075;50.924;4.396;2022-12-10T09:46:13;109.80;;;33.77;;
19828;SDS011;10075;50.924;4.396;2022-12-10T09:48:54;104.83;;;31.33;;
19828;SDS011;10075;50.924;4.396;2022-12-10T09:51:31;122.20;;;33.40;;
19828;SDS011;10075;50.924;4.396;2022-12-10T09:54:02;113.40;;;32.37;;
19828;SDS011;10075;50.924;4.396;2022-12-10T09:56:37;92.30;;;29.27;;
19828;SDS011;10075;50.924;4.396;2022-12-10T09:59:13;96.33;;;31.60;;
19828;SDS011;10075;50.924;4.396;2022-12-10T10:01:46;103.63;;;31.63;;
19828;SDS011;10075;50.924;4.396;2022-12-10T10:04:15;94.63;;;30.93;;
19828;SDS011;10075;50.924;4.396;2022-12-10T10:06:42;85.30;;;29.67;;
19828;SDS011;10075;50.924;4.396;2022-12-10T10:09:10;111.90;;;33.23;;
19828;SDS011;10075;50.924;4.396;2022-12-10T10:11:40;87.77;;;30.90;;
19828;SDS011;10075;50.924;4.396;2022-12-10T10:14:12;98.67;;;28.87;;
19828;SDS011;10075;50.924;4.396;2022-12-10T10:16:46;88.40;;;30.27;;
19828;SDS011;10075;50.924;4.396;2022-12-10T10:19:17;99.37;;;34.50;;
19828;SDS011;10075;50.924;4.396;2022-12-10T10:21:48;93.13;;;31.13;;
19828;SDS011;10075;50.924;4.396;2022-12-10T10:24:17;82.17;;;30.23;;
19828;SDS011;10075;50.924;4.396;2022-12-10T10:26:46;83.63;;;30.00;;
19828;SDS011;10075;50.924;4.396;2022-12-10T10:29:17;86.70;;;30.17;;
19828;SDS011;10075;50.924;4.396;2022-12-10T10:32:09;83.23;;;30.97;;
19828;SDS011;10075;50.924;4.396;2022-12-10T10:34:38;91.87;;;34.00;;
19828;SDS011;10075;50.924;4.396;2022-12-10T10:37:06;103.83;;;40.90;;
19828;SDS011;10075;50.924;4.396;2022-12-10T10:39:39;86.87;;;31.80;;
19828;SDS011;10075;50.924;4.396;2022-12-10T10:42:14;86.90;;;30.40;;
19828;SDS011;10075;50.924;4.396;2022-12-10T10:44:55;94.27;;;33.33;;
19828;SDS011;10075;50.924;4.396;2022-12-10T10:47:29;90.90;;;30.90;;
19828;SDS011;10075;50.924;4.396;2022-12-10T10:49:58;96.07;;;33.23;;
19828;SDS011;10075;50.924;4.396;2022-12-10T10:52:27;93.70;;;31.80;;
19828;SDS011;10075;50.924;4.396;2022-12-10T10:54:56;97.10;;;33.60;;
19828;SDS011;10075;50.924;4.396;2022-12-10T10:57:24;94.80;;;34.63;;
19828;SDS011;10075;50.924;4.396;2022-12-10T11:00:01;101.87;;;36.10;;
19828;SDS011;10075;50.924;4.396;2022-12-10T11:02:32;103.87;;;35.03;;
19828;SDS011;10075;50.924;4.396;2022-12-10T11:05:04;118.37;;;37.03;;
19828;SDS011;10075;50.924;4.396;2022-12-10T11:07:33;96.70;;;34.27;;
19828;SDS011;10075;50.924;4.396;2022-12-10T11:10:02;92.83;;;33.47;;
19828;SDS011;10075;50.924;4.396;2022-12-10T11:12:41;110.47;;;36.97;;
19828;SDS011;10075;50.924;4.396;2022-12-10T11:15:31;111.47;;;36.47;;
19828;SDS011;10075;50.924;4.396;2022-12-10T11:18:00;99.67;;;34.57;;
19828;SDS011;10075;50.924;4.396;2022-12-10T11:20:28;87.80;;;30.43;;
19828;SDS011;10075;50.924;4.396;2022-12-10T11:22:57;100.60;;;34.33;;
19828;SDS011;10075;50.924;4.396;2022-12-10T11:25:29;93.90;;;35.17;;
19828;SDS011;10075;50.924;4.396;2022-12-10T11:28:11;90.87;;;33.00;;
19828;SDS011;10075;50.924;4.396;2022-12-10T11:30:53;82.30;;;27.93;;
19828;SDS011;10075;50.924;4.396;2022-12-10T11:33:33;74.97;;;30.10;;
19828;SDS011;10075;50.924;4.396;2022-12-10T11:36:09;82.30;;;29.90;;
19828;SDS011;10075;50.924;4.396;2022-12-10T11:38:52;69.97;;;26.43;;
19828;SDS011;10075;50.924;4.396;2022-12-10T11:41:30;85.57;;;30.30;;
19828;SDS011;10075;50.924;4.396;2022-12-10T11:44:13;76.10;;;28.37;;
19828;SDS011;10075;50.924;4.396;2022-12-10T11:46:59;67.53;;;26.47;;
19828;SDS011;10075;50.924;4.396;2022-12-10T11:49:42;66.60;;;26.23;;
19828;SDS011;10075;50.924;4.396;2022-12-10T11:52:20;58.00;;;24.00;;
19828;SDS011;10075;50.924;4.396;2022-12-10T11:55:02;66.73;;;26.37;;
19828;SDS011;10075;50.924;4.396;2022-12-10T11:57:41;81.17;;;30.07;;
19828;SDS011;10075;50.924;4.396;2022-12-10T12:00:15;75.47;;;29.03;;
19828;SDS011;10075;50.924;4.396;2022-12-10T12:02:58;64.20;;;26.20;;
19828;SDS011;10075;50.924;4.396;2022-12-10T12:05:45;62.17;;;25.33;;
19828;SDS011;10075;50.924;4.396;2022-12-10T12:08:24;58.33;;;24.33;;
19828;SDS011;10075;50.924;4.396;2022-12-10T12:11:01;60.43;;;24.87;;
19828;SDS011;10075;50.924;4.396;2022-12-10T12:13:41;73.27;;;27.20;;
19828;SDS011;10075;50.924;4.396;2022-12-10T12:16:18;69.33;;;27.23;;
19828;SDS011;10075;50.924;4.396;2022-12-10T12:18:52;57.37;;;24.47;;
19828;SDS011;10075;50.924;4.396;2022-12-10T12:21:25;74.00;;;31.17;;
19828;SDS011;10075;50.924;4.396;2022-12-10T12:23:52;73.87;;;28.47;;
19828;SDS011;10075;50.924;4.396;2022-12-10T12:26:23;67.33;;;26.53;;
19828;SDS011;10075;50.924;4.396;2022-12-10T12:28:55;65.60;;;25.97;;
19828;SDS011;10075;50.924;4.396;2022-12-10T12:31:31;79.03;;;30.70;;
19828;SDS011;10075;50.924;4.396;2022-12-10T12:34:05;100.47;;;39.67;;
19828;SDS011;10075;50.924;4.396;2022-12-10T12:36:42;72.90;;;30.23;;
19828;SDS011;10075;50.924;4.396;2022-12-10T12:39:12;74.07;;;29.77;;
19828;SDS011;10075;50.924;4.396;2022-12-10T12:41:48;80.13;;;32.30;;
19828;SDS011;10075;50.924;4.396;2022-12-10T12:44:22;63.57;;;28.50;;
19828;SDS011;10075;50.924;4.396;2022-12-10T12:46:56;58.23;;;25.73;;
19828;SDS011;10075;50.924;4.396;2022-12-10T12:49:30;66.27;;;27.13;;
19828;SDS011;10075;50.924;4.396;2022-12-10T12:52:02;59.27;;;24.93;;
19828;SDS011;10075;50.924;4.396;2022-12-10T12:54:46;64.50;;;24.67;;
19828;SDS011;10075;50.924;4.396;2022-12-10T12:57:17;68.27;;;28.83;;
19828;SDS011;10075;50.924;4.396;2022-12-10T12:59:52;63.33;;;27.23;;
19828;SDS011;10075;50.924;4.396;2022-12-10T13:02:39;67.07;;;28.30;;
19828;SDS011;10075;50.924;4.396;2022-12-10T13:05:14;70.90;;;28.50;;
19828;SDS011;10075;50.924;4.396;2022-12-10T13:10:59;61.43;;;26.70;;
19828;SDS011;10075;50.924;4.396;2022-12-10T13:13:41;70.40;;;29.90;;
19828;SDS011;10075;50.924;4.396;2022-12-10T13:16:46;64.73;;;27.03;;
19828;SDS011;10075;50.924;4.396;2022-12-10T13:19:26;58.07;;;25.73;;
19828;SDS011;10075;50.924;4.396;2022-12-10T13:22:05;63.33;;;26.60;;
19828;SDS011;10075;50.924;4.396;2022-12-10T13:27:31;57.03;;;24.80;;
19828;SDS011;10075;50.924;4.396;2022-12-10T13:30:02;59.53;;;24.50;;
19828;SDS011;10075;50.924;4.396;2022-12-10T13:32:52;59.53;;;25.30;;
19828;SDS011;10075;50.924;4.396;2022-12-10T13:35:31;56.53;;;26.90;;
19828;SDS011;10075;50.924;4.396;2022-12-10T13:38:17;52.27;;;23.83;;
19828;SDS011;10075;50.924;4.396;2022-12-10T13:40:56;56.63;;;24.07;;
19828;SDS011;10075;50.924;4.396;2022-12-10T13:43:42;63.67;;;25.37;;
19828;SDS011;10075;50.924;4.396;2022-12-10T13:46:51;63.10;;;26.90;;
19828;SDS011;10075;50.924;4.396;2022-12-10T13:49:20;57.73;;;25.03;;
19828;SDS011;10075;50.924;4.396;2022-12-10T13:51:52;57.87;;;24.63;;
19828;SDS011;10075;50.924;4.396;2022-12-10T13:54:36;52.93;;;24.17;;
19828;SDS011;10075;50.924;4.396;2022-12-10T13:57:33;64.13;;;24.17;;
19828;SDS011;10075;50.924;4.396;2022-12-10T14:00:21;66.27;;;27.10;;
19828;SDS011;10075;50.924;4.396;2022-12-10T14:02:59;64.30;;;29.73;;
19828;SDS011;10075;50.924;4.396;2022-12-10T14:05:51;68.40;;;31.47;;
19828;SDS011;10075;50.924;4.396;2022-12-10T14:08:34;68.23;;;29.20;;
19828;SDS011;10075;50.924;4.396;2022-12-10T14:11:04;69.77;;;29.40;;
19828;SDS011;10075;50.924;4.396;2022-12-10T14:13:38;62.97;;;26.67;;
19828;SDS011;10075;50.924;4.396;2022-12-10T14:16:10;56.73;;;23.67;;
19828;SDS011;10075;50.924;4.396;2022-12-10T14:18:39;58.13;;;24.03;;
19828;SDS011;10075;50.924;4.396;2022-12-10T14:21:10;61.10;;;23.27;;
19828;SDS011;10075;50.924;4.396;2022-12-10T14:23:43;56.73;;;22.10;;
19828;SDS011;10075;50.924;4.396;2022-12-10T14:26:12;47.40;;;20.73;;
19828;SDS011;10075;50.924;4.396;2022-12-10T14:28:43;52.33;;;21.30;;
19828;SDS011;10075;50.924;4.396;2022-12-10T14:31:12;59.93;;;22.40;;
19828;SDS011;10075;50.924;4.396;2022-12-10T14:33:45;57.13;;;24.33;;
19828;SDS011;10075;50.924;4.396;2022-12-10T14:36:20;61.77;;;25.43;;
19828;SDS011;10075;50.924;4.396;2022-12-10T14:38:52;57.93;;;22.60;;
19828;SDS011;10075;50.924;4.396;2022-12-10T14:41:20;56.27;;;23.07;;
19828;SDS011;10075;50.924;4.396;2022-12-10T14:43:50;56.43;;;22.07;;